Time;durP1;ratioP1;P1;durP2;ratioP2;P2;SDS_P1;SDS_P2;PMS_P1;PMS_P2;Temp;Humidity;BMP_temperature;BMP_pressure;BME280_temperature;BME280_humidity;BME280_pressure;Samples;Min_cycle;Max_cycle;Signal;HPM_P1;HPM_P2
2022/08/31 00:05:05;;;;;;;8.45;5.40;;;;;;;23.92;59.04;99987.72;4113825;28;20231;-68
2022/08/31 00:07:07;;;;;;;9.65;5.88;;;;;;;22.44;62.55;99979.78;4108960;28;20702;-68
2022/08/31 00:09:09;;;;;;;9.40;5.90;;;;;;;23.75;60.75;99952.38;4110917;28;20311;-69
2022/08/31 00:11:13;;;;;;;8.27;5.22;;;;;;;22.57;62.32;99965.16;4112318;28;20238;-68
2022/08/31 00:13:15;;;;;;;6.18;5.38;;;;;;;23.25;60.18;99963.81;4113443;28;20277;-68
2022/08/31 00:15:20;;;;;;;7.00;5.57;;;;;;;22.82;62.48;99948.69;4109502;28;20783;-68
2022/08/31 00:17:26;;;;;;;7.28;4.95;;;;;;;24.05;59.33;99945.84;4107145;28;20242;-68
2022/08/31 00:19:27;;;;;;;6.15;5.55;;;;;;;23.65;60.09;99951.34;4115576;28;20238;-68
2022/08/31 00:21:29;;;;;;;8.68;5.70;;;;;;;22.77;61.63;99967.56;4112447;28;20243;-68
2022/08/31 00:23:31;;;;;;;7.82;5.55;;;;;;;23.42;59.53;99974.75;4111380;28;20904;-68
2022/08/31 00:25:33;;;;;;;6.38;5.15;;;;;;;23.10;60.94;99964.28;4110849;28;20262;-68
2022/08/31 00:27:35;;;;;;;7.03;5.38;;;;;;;22.56;62.38;99952.69;4113481;28;20239;-68
2022/08/31 00:29:37;;;;;;;7.22;5.57;;;;;;;23.79;59.70;99943.72;4109986;28;20301;-68
2022/08/31 00:31:38;;;;;;;8.20;4.97;;;;;;;21.94;64.40;99942.97;4115324;28;20284;-69
2022/08/31 00:33:41;;;;;;;7.53;5.50;;;;;;;23.33;59.54;99966.16;4111606;28;20787;-68
2022/08/31 00:35:43;;;;;;;8.73;5.63;;;;;;;22.94;61.48;99960.38;4112436;28;20289;-68
2022/08/31 00:37:44;;;;;;;7.53;5.25;;;;;;;22.08;63.43;99951.72;4114070;28;20279;-69
2022/08/31 00:39:46;;;;;;;7.45;5.35;;;;;;;23.62;59.31;99959.97;4115746;28;20226;-68
2022/08/31 00:41:48;;;;;;;9.13;6.28;;;;;;;22.67;62.95;99951.06;4110289;28;20231;-68
2022/08/31 00:43:53;;;;;;;8.25;5.88;;;;;;;23.29;59.67;99958.72;4113198;28;20237;-71
2022/08/31 00:45:55;;;;;;;7.90;5.80;;;;;;;22.00;64.28;99936.63;4111786;28;20254;-67
2022/08/31 00:47:57;;;;;;;7.80;6.60;;;;;;;22.41;63.28;99932.28;4115795;28;20239;-70
2022/08/31 00:49:59;;;;;;;7.85;5.82;;;;;;;20.90;66.33;99943.69;4111325;28;20242;-68
2022/08/31 00:52:14;;;;;;;8.77;6.03;;;;;;;21.83;65.10;99924.78;4115768;28;20711;-68
2022/08/31 00:54:21;;;;;;;6.82;5.72;;;;;;;20.99;67.65;99915.38;4103326;28;20356;-68
2022/08/31 00:56:23;;;;;;;8.25;6.40;;;;;;;21.69;66.56;99916.84;4114138;28;20632;-68
2022/08/31 00:58:25;;;;;;;10.15;7.15;;;;;;;22.56;63.92;99922.91;4110242;28;20235;-67
2022/08/31 01:00:28;;;;;;;8.20;6.90;;;;;;;21.32;65.74;99943.91;4107296;28;20724;-68
2022/08/31 01:02:29;;;;;;;9.52;6.47;;;;;;;21.41;65.88;99946.31;4111261;28;20227;-68
2022/08/31 01:04:32;;;;;;;8.20;7.03;;;;;;;21.75;65.89;99931.38;4112529;28;20278;-70
2022/08/31 01:06:34;;;;;;;11.30;7.63;;;;;;;22.16;63.80;99945.97;4114056;28;20682;-68
2022/08/31 01:08:36;;;;;;;9.10;7.57;;;;;;;21.79;65.83;99945.25;4112975;28;20238;-68
2022/08/31 01:10:45;;;;;;;9.27;6.57;;;;;;;21.28;67.46;99947.31;4117017;28;20243;-68
2022/08/31 01:12:51;;;;;;;9.03;6.67;;;;;;;21.38;68.01;99935.94;4109929;28;20231;-68
2022/08/31 01:14:54;;;;;;;8.07;7.13;;;;;;;21.68;66.08;99949.53;4108580;28;20290;-68
2022/08/31 01:16:56;;;;;;;10.63;6.97;;;;;;;21.19;67.67;99952.16;4113257;28;20241;-68
2022/08/31 01:19:01;;;;;;;8.57;7.37;;;;;;;21.65;67.13;99940.03;4111577;28;20234;-68
2022/08/31 01:21:21;;;;;;;10.43;7.77;;;;;;;21.32;67.89;99934.97;4109437;28;20239;-68
2022/08/31 01:23:27;;;;;;;10.00;8.03;;;;;;;20.57;69.85;99944.00;4112631;28;20241;-68
2022/08/31 01:25:29;;;;;;;9.73;8.00;;;;;;;21.59;67.03;99951.72;4117392;28;20234;-68
2022/08/31 01:27:35;;;;;;;9.63;7.83;;;;;;;22.59;64.96;99953.06;4111859;28;20313;-68
2022/08/31 01:29:37;;;;;;;9.87;8.10;;;;;;;21.84;67.08;99954.34;4107152;28;20281;-68
2022/08/31 01:31:43;;;;;;;9.10;7.90;;;;;;;22.19;65.63;99958.25;4115674;28;20724;-68
2022/08/31 01:33:45;;;;;;;8.83;6.90;;;;;;;20.87;68.61;99976.59;4111017;28;20242;-68
2022/08/31 01:35:47;;;;;;;10.10;6.63;;;;;;;21.17;67.89;99973.19;4112716;28;20244;-68
2022/08/31 01:37:50;;;;;;;8.47;6.27;;;;;;;22.27;65.20;99969.56;4114604;28;20625;-68
2022/08/31 01:39:51;;;;;;;7.80;6.17;;;;;;;21.14;68.21;99988.00;4112434;28;20869;-68
2022/08/31 01:41:53;;;;;;;8.10;6.70;;;;;;;21.59;67.04;99978.75;4107728;28;20238;-68
2022/08/31 01:43:56;;;;;;;6.50;5.67;;;;;;;21.89;66.17;99980.72;4109408;28;20242;-68
2022/08/31 01:45:58;;;;;;;7.38;5.82;;;;;;;21.95;66.41;99971.69;4111796;28;20238;-68
2022/08/31 01:48:00;;;;;;;6.40;4.97;;;;;;;21.04;68.86;99970.63;4108779;28;20969;-68
2022/08/31 01:50:02;;;;;;;6.40;5.30;;;;;;;21.12;68.41;99963.06;4117815;28;20302;-68
2022/08/31 01:52:04;;;;;;;5.73;5.13;;;;;;;20.88;68.64;99959.31;4113588;28;20304;-68
2022/08/31 01:54:06;;;;;;;9.57;5.43;;;;;;;20.76;68.84;99967.31;4110859;28;20249;-68
2022/08/31 01:56:27;;;;;;;8.40;6.03;;;;;;;22.50;65.11;99969.88;4112532;28;20300;-68
2022/08/31 01:58:28;;;;;;;8.10;6.67;;;;;;;22.03;65.11;99978.66;4111633;28;20868;-68
2022/08/31 02:00:30;;;;;;;8.37;6.20;;;;;;;21.39;67.08;99994.41;4108489;28;20277;-68
2022/08/31 02:02:32;;;;;;;6.67;5.60;;;;;;;22.69;63.43;99990.41;4108688;28;20245;-69
2022/08/31 02:04:34;;;;;;;6.13;5.53;;;;;;;22.32;65.34;99982.44;4106527;28;20234;-68
2022/08/31 02:06:36;;;;;;;5.97;5.37;;;;;;;23.24;62.25;99996.59;4109651;28;20293;-68
2022/08/31 02:08:38;;;;;;;6.70;5.60;;;;;;;22.92;62.98;99986.06;4114852;28;20259;-70
2022/08/31 02:10:41;;;;;;;6.70;5.70;;;;;;;23.04;61.79;100003.19;4112451;28;20246;-68
2022/08/31 02:12:43;;;;;;;6.33;4.97;;;;;;;22.80;62.62;99996.91;4109757;28;20719;-68
2022/08/31 02:14:45;;;;;;;6.67;5.00;;;;;;;22.57;62.66;100012.06;4110173;28;20301;-68
2022/08/31 02:16:48;;;;;;;6.27;4.83;;;;;;;22.77;62.51;100000.09;4110269;28;20735;-68
2022/08/31 02:18:50;;;;;;;6.50;4.83;;;;;;;22.68;61.80;100013.16;4110640;28;21208;-69
2022/08/31 02:20:52;;;;;;;5.90;4.77;;;;;;;23.02;61.41;100008.84;4116557;28;20234;-69
2022/08/31 02:22:53;;;;;;;5.53;4.93;;;;;;;24.46;58.22;99978.38;4110992;28;20867;-69
2022/08/31 02:24:55;;;;;;;6.87;4.20;;;;;;;24.11;57.94;100003.84;4114011;28;20925;-69
2022/08/31 02:26:57;;;;;;;4.75;4.03;;;;;;;24.08;57.72;100016.00;4109107;28;20649;-69
2022/08/31 02:28:59;;;;;;;5.25;4.55;;;;;;;25.66;54.89;99982.63;4111544;28;20292;-69
2022/08/31 02:31:00;;;;;;;6.20;4.53;;;;;;;26.24;53.25;100000.16;4111067;28;20238;-68
2022/08/31 02:33:02;;;;;;;5.45;4.47;;;;;;;25.75;53.70;100011.88;4114629;28;20230;-69
2022/08/31 02:35:05;;;;;;;5.03;4.45;;;;;;;26.00;53.71;99991.50;4105774;28;20313;-69
2022/08/31 02:37:06;;;;;;;5.22;4.70;;;;;;;25.34;55.33;99980.53;4110944;28;20234;-69
2022/08/31 02:39:12;;;;;;;5.10;4.53;;;;;;;25.86;54.75;99969.22;4110589;28;20241;-69
2022/08/31 02:41:16;;;;;;;4.80;3.95;;;;;;;23.63;59.59;99953.47;4108261;28;20948;-69
2022/08/31 02:43:18;;;;;;;4.30;3.80;;;;;;;23.40;59.59;99955.16;4109362;28;20625;-69
2022/08/31 02:45:25;;;;;;;4.20;3.67;;;;;;;22.34;61.48;99960.53;4104946;28;20227;-69
2022/08/31 02:47:29;;;;;;;4.95;3.58;;;;;;;22.83;59.81;99951.19;4114836;28;20661;-69
2022/08/31 02:49:31;;;;;;;6.00;3.80;;;;;;;24.52;56.36;99943.97;4105380;28;20367;-69
2022/08/31 02:51:33;;;;;;;4.28;3.40;;;;;;;22.95;57.48;99977.50;4110771;28;20234;-69
2022/08/31 02:53:36;;;;;;;3.90;3.60;;;;;;;24.13;57.14;99966.38;4107290;28;20304;-69
2022/08/31 02:55:38;;;;;;;5.82;3.75;;;;;;;25.64;54.20;99968.44;4109235;28;20735;-68
2022/08/31 02:57:39;;;;;;;4.95;3.75;;;;;;;26.11;52.50;99976.06;4112979;28;21781;-69
2022/08/31 02:59:42;;;;;;;5.30;4.10;;;;;;;26.38;51.15;99989.66;4108041;28;20231;-69
2022/08/31 03:01:44;;;;;;;4.82;4.03;;;;;;;26.21;52.39;99988.97;4109783;28;20226;-69
2022/08/31 03:03:45;;;;;;;5.82;3.63;;;;;;;25.55;54.23;99989.84;4110322;28;20234;-68
2022/08/31 03:05:49;;;;;;;4.82;4.15;;;;;;;26.69;50.83;99968.16;4108881;28;20222;-69
2022/08/31 03:07:51;;;;;;;5.60;4.70;;;;;;;26.11;52.11;99976.06;4112226;28;20293;-69
2022/08/31 03:09:53;;;;;;;5.75;5.15;;;;;;;26.46;51.89;99955.66;4111088;28;20235;-69
2022/08/31 03:11:54;;;;;;;5.60;5.10;;;;;;;27.03;50.33;99955.00;4113581;28;20945;-69
2022/08/31 03:13:56;;;;;;;6.60;5.65;;;;;;;27.22;50.44;99952.66;4110242;28;20246;-69
2022/08/31 03:15:59;;;;;;;6.47;5.50;;;;;;;26.40;52.02;99945.78;4114870;28;20266;-69
2022/08/31 03:18:01;;;;;;;6.18;5.57;;;;;;;26.45;52.16;99941.19;4110066;28;20245;-69
2022/08/31 03:20:09;;;;;;;5.38;4.65;;;;;;;25.87;53.76;99929.22;4110770;28;20273;-68
2022/08/31 03:22:13;;;;;;;6.60;5.20;;;;;;;26.94;51.20;99923.00;4109518;28;20298;-68
2022/08/31 03:24:18;;;;;;;6.55;5.18;;;;;;;26.99;51.03;99948.41;4108657;28;20325;-69
2022/08/31 03:26:22;;;;;;;6.32;4.70;;;;;;;26.53;51.46;99956.28;4108905;28;20791;-68
2022/08/31 03:28:23;;;;;;;6.15;4.63;;;;;;;26.24;52.14;99945.66;4109133;28;20238;-69
2022/08/31 03:30:25;;;;;;;7.05;5.53;;;;;;;26.48;52.04;99945.31;4114223;28;20983;-68
2022/08/31 03:32:30;;;;;;;7.05;5.78;;;;;;;25.91;53.93;99960.28;4107301;28;20241;-68
2022/08/31 03:34:32;;;;;;;8.38;5.80;;;;;;;26.03;53.54;99962.91;4111410;28;20230;-69
2022/08/31 03:36:33;;;;;;;7.53;6.40;;;;;;;25.93;53.82;99948.06;4107756;28;20321;-70
2022/08/31 03:38:35;;;;;;;7.88;6.90;;;;;;;25.33;54.97;99962.59;4108641;28;20230;-69
2022/08/31 03:40:41;;;;;;;8.67;6.73;;;;;;;25.27;55.02;99961.69;4109351;28;20231;-71
2022/08/31 03:42:43;;;;;;;8.07;7.10;;;;;;;25.51;54.96;99961.47;4107505;28;20240;-71
2022/08/31 03:44:46;;;;;;;10.53;7.63;;;;;;;25.64;55.13;99958.34;4109553;28;20242;-71
2022/08/31 03:46:49;;;;;;;11.13;7.47;;;;;;;25.72;53.96;99968.81;4110553;28;20234;-70
2022/08/31 03:48:51;;;;;;;8.93;7.47;;;;;;;24.62;56.63;99963.16;4111651;28;20285;-70
2022/08/31 03:50:53;;;;;;;9.63;7.70;;;;;;;25.16;55.45;99965.34;4115119;28;20241;-69
2022/08/31 03:52:54;;;;;;;10.23;7.80;;;;;;;25.56;54.66;99958.81;4113116;28;21422;-69
2022/08/31 03:54:56;;;;;;;8.93;7.63;;;;;;;26.00;53.65;99963.41;4110895;28;20226;-67
2022/08/31 03:56:57;;;;;;;10.33;7.13;;;;;;;25.52;54.38;99984.91;4106691;28;20234;-69
2022/08/31 03:58:59;;;;;;;9.57;7.97;;;;;;;25.73;54.15;99981.34;4112665;28;20281;-67
2022/08/31 04:01:01;;;;;;;9.20;7.47;;;;;;;26.12;53.10;99980.44;4109326;28;20235;-68
2022/08/31 04:03:03;;;;;;;8.00;7.18;;;;;;;25.50;53.74;99992.50;4110454;28;20233;-71
2022/08/31 04:05:06;;;;;;;8.23;7.43;;;;;;;24.97;55.23;99998.28;4110493;28;20644;-68
2022/08/31 04:07:08;;;;;;;11.55;7.20;;;;;;;25.24;55.27;99986.69;4110805;28;20239;-68
2022/08/31 04:09:11;;;;;;;8.05;6.80;;;;;;;25.78;53.57;99975.97;4112305;28;20230;-69
2022/08/31 04:11:16;;;;;;;9.27;7.05;;;;;;;25.59;53.35;99990.97;4113920;28;20293;-63
2022/08/31 04:13:22;;;;;;;7.63;6.88;;;;;;;26.10;52.92;99994.31;4110855;28;20234;-62
2022/08/31 04:15:30;;;;;;;6.90;6.18;;;;;;;26.33;52.18;99993.16;4109453;28;20238;-63
2022/08/31 04:17:32;;;;;;;11.75;7.90;;;;;;;26.31;52.43;99999.97;4106372;28;20254;-63
2022/08/31 04:19:34;;;;;;;9.13;7.10;;;;;;;26.45;51.63;100008.53;4110222;28;20234;-62
2022/08/31 04:21:36;;;;;;;8.85;6.50;;;;;;;26.28;52.78;100003.19;4110181;28;20239;-63
2022/08/31 04:23:39;;;;;;;9.27;6.47;;;;;;;26.04;52.74;100006.22;4112743;28;20289;-62
2022/08/31 04:25:41;;;;;;;7.80;6.80;;;;;;;26.16;52.24;100006.91;4114084;28;20249;-63
2022/08/31 04:27:43;;;;;;;9.13;6.38;;;;;;;26.71;51.30;100006.91;4107998;28;20241;-63
2022/08/31 04:29:45;;;;;;;8.88;6.35;;;;;;;27.11;50.58;100000.09;4110945;28;22017;-64
2022/08/31 04:31:46;;;;;;;9.57;6.37;;;;;;;27.25;49.91;100004.00;4112146;28;20230;-64
2022/08/31 04:33:48;;;;;;;7.13;5.68;;;;;;;26.57;51.76;100011.97;4112074;28;20258;-64
2022/08/31 04:35:50;;;;;;;6.67;5.97;;;;;;;26.34;52.67;100004.91;4118185;28;20230;-63
2022/08/31 04:37:51;;;;;;;8.05;6.63;;;;;;;26.45;52.24;100003.09;4114110;28;20237;-64
2022/08/31 04:39:55;;;;;;;6.78;5.40;;;;;;;25.96;52.98;99998.50;4111291;28;20293;-63
2022/08/31 04:41:59;;;;;;;9.30;5.82;;;;;;;26.04;52.50;100002.69;4112261;28;20242;-63
2022/08/31 04:44:05;;;;;;;7.10;6.28;;;;;;;26.34;52.25;100002.19;4112965;28;20919;-63
2022/08/31 04:46:07;;;;;;;6.38;5.45;;;;;;;26.45;51.63;100009.34;4112074;28;20307;-62
2022/08/31 04:48:09;;;;;;;6.45;5.43;;;;;;;26.67;51.27;100014.78;4113226;28;20238;-63
2022/08/31 04:50:13;;;;;;;8.52;6.47;;;;;;;26.78;51.36;100010.22;4110729;28;20651;-64
2022/08/31 04:52:14;;;;;;;8.40;6.10;;;;;;;27.30;50.36;100011.41;4115083;28;20222;-64
2022/08/31 04:54:16;;;;;;;7.53;5.85;;;;;;;27.24;50.11;100023.38;4111576;28;20262;-63
2022/08/31 04:56:27;;;;;;;6.60;5.80;;;;;;;27.22;50.26;100022.81;4111300;28;20238;-63
2022/08/31 04:58:28;;;;;;;7.45;6.50;;;;;;;26.61;51.63;100012.25;4109747;28;20226;-66
2022/08/31 05:00:30;;;;;;;6.88;6.00;;;;;;;26.85;50.67;100002.63;4112262;28;20222;-64
2022/08/31 05:02:32;;;;;;;7.80;6.47;;;;;;;27.11;50.11;100013.72;4110569;28;20298;-64
2022/08/31 05:04:33;;;;;;;7.05;6.35;;;;;;;27.17;50.12;100014.59;4108927;28;20302;-64
2022/08/31 05:06:37;;;;;;;7.18;6.47;;;;;;;26.17;52.29;100013.19;4110858;28;20262;-63
2022/08/31 05:08:39;;;;;;;8.15;6.43;;;;;;;26.40;52.55;100005.75;4114219;28;20246;-63
2022/08/31 05:10:41;;;;;;;6.93;5.90;;;;;;;26.16;52.92;100004.16;4111721;28;20234;-64
2022/08/31 05:12:43;;;;;;;9.00;6.60;;;;;;;25.74;54.18;100010.22;4116169;28;20714;-64
2022/08/31 05:14:44;;;;;;;7.00;6.07;;;;;;;25.66;53.94;100007.13;4111183;28;20289;-63
2022/08/31 05:16:46;;;;;;;7.60;6.80;;;;;;;25.53;54.63;100009.16;4111605;28;20238;-63
2022/08/31 05:18:49;;;;;;;6.90;6.20;;;;;;;25.96;53.53;100018.44;4115898;28;20234;-63
2022/08/31 05:20:51;;;;;;;7.55;6.85;;;;;;;26.18;52.99;100016.72;4113238;28;20242;-64
2022/08/31 05:22:53;;;;;;;6.63;6.00;;;;;;;25.91;53.84;100029.22;4109251;28;20242;-64
2022/08/31 05:24:54;;;;;;;9.55;6.32;;;;;;;26.62;52.01;100022.06;4112889;28;20235;-63
2022/08/31 05:26:56;;;;;;;7.95;5.70;;;;;;;26.64;52.49;100028.09;4107490;28;20253;-63
2022/08/31 05:28:59;;;;;;;10.50;6.57;;;;;;;26.60;51.87;100032.44;4110426;28;20243;-63
2022/08/31 05:31:02;;;;;;;8.85;6.55;;;;;;;26.81;51.67;100033.44;4111812;28;20234;-64
2022/08/31 05:33:03;;;;;;;8.13;6.00;;;;;;;26.28;52.80;100039.44;4109176;28;20232;-64
2022/08/31 05:35:05;;;;;;;9.88;6.47;;;;;;;26.06;53.17;100050.38;4109416;28;20609;-63
2022/08/31 05:37:07;;;;;;;10.93;6.32;;;;;;;26.41;52.65;100037.41;4111085;28;20239;-64
2022/08/31 05:39:11;;;;;;;8.35;6.30;;;;;;;26.05;53.24;100037.84;4110067;28;20230;-64
2022/08/31 05:41:13;;;;;;;8.52;5.93;;;;;;;26.26;52.95;100035.34;4112995;28;20304;-64
2022/08/31 05:43:15;;;;;;;8.23;5.50;;;;;;;26.06;53.58;100036.75;4108226;28;20234;-63
2022/08/31 05:45:17;;;;;;;6.95;5.75;;;;;;;25.99;53.72;100038.06;4109160;28;20945;-62
2022/08/31 05:47:19;;;;;;;7.28;6.57;;;;;;;26.63;52.46;100032.72;4115935;28;20707;-64
2022/08/31 05:49:20;;;;;;;6.75;5.80;;;;;;;26.35;52.95;100039.25;4113794;28;20238;-62
2022/08/31 05:51:27;;;;;;;8.68;5.53;;;;;;;26.29;53.18;100038.38;4114085;28;20672;-62
2022/08/31 05:53:29;;;;;;;7.60;6.65;;;;;;;26.82;52.37;100030.41;4110832;28;20289;-63
2022/08/31 05:55:31;;;;;;;8.80;5.85;;;;;;;25.77;53.78;100044.31;4110534;28;20230;-63
2022/08/31 05:57:33;;;;;;;8.18;6.57;;;;;;;26.94;51.67;100038.41;4106803;28;20227;-63
2022/08/31 05:59:36;;;;;;;10.27;7.20;;;;;;;27.39;50.93;100031.66;4107932;28;20293;-62
2022/08/31 06:01:40;;;;;;;7.82;6.13;;;;;;;27.07;51.77;100040.72;4105284;28;20235;-64
2022/08/31 06:03:42;;;;;;;9.38;6.47;;;;;;;25.26;54.36;100047.13;4115204;28;20570;-63
2022/08/31 06:05:44;;;;;;;8.00;5.72;;;;;;;23.93;58.46;100027.38;4114256;28;20645;-63
2022/08/31 06:07:46;;;;;;;8.57;6.47;;;;;;;24.21;57.99;100020.34;4114853;28;20285;-63
2022/08/31 06:09:47;;;;;;;8.82;6.80;;;;;;;25.24;54.42;100032.97;4109702;28;20230;-63
2022/08/31 06:11:50;;;;;;;7.35;6.25;;;;;;;25.51;55.09;100024.06;4110183;28;20230;-64
2022/08/31 06:13:54;;;;;;;9.25;6.85;;;;;;;26.35;53.09;100020.16;4108851;28;20313;-63
2022/08/31 06:15:56;;;;;;;7.40;6.47;;;;;;;26.76;52.40;100031.47;4112094;28;20862;-63
2022/08/31 06:17:58;;;;;;;7.40;6.32;;;;;;;27.20;50.87;100041.38;4112740;28;20233;-63
2022/08/31 06:20:02;;;;;;;7.13;6.35;;;;;;;27.16;51.17;100048.44;4104785;28;20230;-63
2022/08/31 06:22:04;;;;;;;10.88;6.47;;;;;;;26.85;51.53;100059.91;4111749;28;20250;-63
2022/08/31 06:24:06;;;;;;;10.60;6.72;;;;;;;26.73;51.78;100055.72;4112274;28;20235;-64
2022/08/31 06:26:11;;;;;;;7.18;6.43;;;;;;;27.04;51.13;100065.81;4107568;28;20293;-64
2022/08/31 06:28:14;;;;;;;11.05;6.80;;;;;;;26.81;51.69;100055.25;4106403;28;20239;-63
2022/08/31 06:30:18;;;;;;;9.32;7.50;;;;;;;26.90;51.84;100056.41;4108091;28;20305;-64
2022/08/31 06:32:20;;;;;;;8.00;6.75;;;;;;;26.54;52.81;100067.00;4106845;28;20294;-63
2022/08/31 06:34:23;;;;;;;10.13;6.65;;;;;;;26.10;53.49;100064.31;4108934;28;20740;-64
2022/08/31 06:36:27;;;;;;;8.95;7.07;;;;;;;26.34;52.74;100053.97;4109216;28;20298;-64
2022/08/31 06:38:29;;;;;;;12.32;7.80;;;;;;;25.31;55.42;100058.09;4113156;28;20230;-63
2022/08/31 06:40:33;;;;;;;8.50;7.20;;;;;;;26.05;54.18;100050.63;4110457;28;20230;-64
2022/08/31 06:42:35;;;;;;;9.23;7.07;;;;;;;25.84;54.12;100053.09;4113725;28;20237;-64
2022/08/31 06:44:36;;;;;;;8.93;7.28;;;;;;;26.64;52.33;100060.81;4106404;28;20238;-62
2022/08/31 06:46:39;;;;;;;9.95;7.18;;;;;;;26.63;52.51;100064.63;4109976;28;21489;-64
2022/08/31 06:48:41;;;;;;;11.65;7.80;;;;;;;26.92;52.45;100043.31;4111482;28;20246;-64
2022/08/31 06:50:43;;;;;;;9.57;8.23;;;;;;;26.98;52.49;100044.19;4112553;28;20227;-64
2022/08/31 06:52:47;;;;;;;9.85;7.32;;;;;;;25.69;54.15;100067.34;4111239;28;20225;-63
2022/08/31 06:54:48;;;;;;;11.15;7.82;;;;;;;26.03;54.83;100050.06;4110245;28;20258;-64
2022/08/31 06:56:50;;;;;;;11.32;8.05;;;;;;;25.52;55.44;100056.50;4113756;28;20238;-64
2022/08/31 06:58:53;;;;;;;8.38;7.55;;;;;;;26.22;53.81;100059.56;4111598;28;20230;-63
2022/08/31 07:00:56;;;;;;;9.07;8.18;;;;;;;26.50;52.82;100058.53;4109371;28;20313;-64
2022/08/31 07:03:21;;;;;;;9.30;7.95;;;;;;;26.07;54.12;100062.94;4108958;28;20230;-64
2022/08/31 07:05:20;;;;;;;9.07;8.05;;;;;;;24.92;56.49;100062.63;4112779;28;20230;-64
2022/08/31 07:07:25;;;;;;;10.02;7.90;;;;;;;24.11;58.69;100058.16;4111749;28;20685;-63
2022/08/31 07:09:27;;;;;;;10.48;7.68;;;;;;;26.48;53.54;100051.66;4107800;28;20923;-63
2022/08/31 07:11:32;;;;;;;8.77;7.28;;;;;;;26.84;52.62;100051.97;4108335;28;20269;-63
2022/08/31 07:13:34;;;;;;;8.05;7.25;;;;;;;26.24;53.81;100060.13;4113040;28;20226;-64
2022/08/31 07:15:35;;;;;;;8.68;7.88;;;;;;;27.47;51.72;100045.91;4111114;28;20229;-63
2022/08/31 07:17:37;;;;;;;10.43;8.23;;;;;;;27.11;52.45;100073.78;4107977;28;20234;-63
2022/08/31 07:19:39;;;;;;;10.98;9.20;;;;;;;27.49;51.28;100068.31;4112355;28;20625;-63
2022/08/31 07:21:48;;;;;;;8.82;7.93;;;;;;;27.24;51.81;100067.06;4115175;28;21043;-64
2022/08/31 07:23:51;;;;;;;10.43;8.80;;;;;;;27.42;51.52;100069.34;4111088;28;20252;-63
2022/08/31 07:25:53;;;;;;;9.95;8.35;;;;;;;27.54;50.93;100076.53;4113031;28;20234;-63
2022/08/31 07:27:54;;;;;;;10.07;8.65;;;;;;;27.35;51.69;100081.59;4113679;28;20844;-64
2022/08/31 07:29:59;;;;;;;9.95;8.75;;;;;;;27.29;51.67;100075.28;4114035;28;20242;-64
2022/08/31 07:32:01;;;;;;;11.38;8.80;;;;;;;27.10;52.47;100084.97;4112665;28;20252;-63
2022/08/31 07:34:06;;;;;;;10.50;8.25;;;;;;;26.50;53.12;100083.06;4113023;28;20723;-64
2022/08/31 07:36:12;;;;;;;12.63;8.38;;;;;;;27.24;51.80;100080.69;4113594;28;20277;-64
2022/08/31 07:42:58;;;;;;;11.18;9.07;;;;;;;27.87;50.08;100089.03;4111027;28;20242;-63
2022/08/31 07:45:06;;;;;;;10.73;9.02;;;;;;;27.38;51.24;100087.38;4113411;28;20234;-64
2022/08/31 07:47:13;;;;;;;9.80;8.65;;;;;;;27.50;51.47;100087.16;4113419;28;20316;-64
2022/08/31 07:49:18;;;;;;;9.75;8.75;;;;;;;27.66;51.13;100081.81;4114367;28;20297;-64
2022/08/31 07:51:22;;;;;;;9.88;8.85;;;;;;;27.66;51.08;100093.53;4113450;28;20250;-63
2022/08/31 07:53:23;;;;;;;9.25;8.32;;;;;;;27.98;50.41;100082.47;4111444;28;20254;-64
2022/08/31 07:55:27;;;;;;;12.48;10.05;;;;;;;27.67;50.21;100102.56;4111642;28;20231;-63
2022/08/31 07:57:35;;;;;;;11.43;10.13;;;;;;;26.87;51.91;100098.66;4114505;28;20647;-63
2022/08/31 07:59:38;;;;;;;13.20;9.93;;;;;;;27.96;50.41;100086.59;4108389;28;20706;-64
2022/08/31 08:01:41;;;;;;;10.88;9.77;;;;;;;28.54;49.45;100084.59;4110628;28;20238;-63
2022/08/31 08:03:43;;;;;;;11.20;9.90;;;;;;;28.31;50.08;100088.66;4113368;28;20681;-63
2022/08/31 08:05:46;;;;;;;11.18;9.30;;;;;;;27.88;51.13;100096.09;4112870;28;20238;-63
2022/08/31 08:07:50;;;;;;;10.75;8.15;;;;;;;27.62;50.49;100092.44;4110662;28;20238;-63
2022/08/31 08:09:55;;;;;;;9.35;8.15;;;;;;;26.86;52.16;100091.56;4116043;28;20241;-64
2022/08/31 08:12:05;;;;;;;11.10;6.97;;;;;;;27.14;51.79;100086.09;4112756;28;20242;-62
2022/08/31 08:14:07;;;;;;;8.60;6.95;;;;;;;26.38;52.07;100082.34;4115194;28;20238;-63
2022/08/31 08:16:10;;;;;;;7.80;7.00;;;;;;;27.05;51.92;100099.38;4113739;28;20238;-62
2022/08/31 08:18:12;;;;;;;10.00;6.25;;;;;;;26.85;52.08;100089.91;4109860;28;20242;-61
2022/08/31 08:20:15;;;;;;;10.77;6.50;;;;;;;26.62;50.23;100084.78;4109681;28;20253;-62
2022/08/31 08:22:39;;;;;;;9.88;5.53;;;;;;;26.26;49.97;100095.31;4110506;28;20318;-61
2022/08/31 08:24:54;;;;;;;7.90;5.55;;;;;;;26.69;48.76;100108.06;4111149;28;20242;-63
2022/08/31 08:26:56;;;;;;;8.88;6.85;;;;;;;26.78;49.46;100104.88;4107633;28;20318;-63
2022/08/31 08:28:58;;;;;;;10.15;6.28;;;;;;;26.65;48.48;100106.09;4114201;28;20618;-62
2022/08/31 08:31:00;;;;;;;7.03;5.60;;;;;;;26.81;48.20;100113.34;4109698;28;20231;-63
2022/08/31 08:33:02;;;;;;;7.78;5.68;;;;;;;27.27;47.45;100112.94;4112505;28;20226;-62
2022/08/31 08:35:04;;;;;;;8.23;6.57;;;;;;;26.75;48.38;100117.09;4106134;28;20231;-62
2022/08/31 08:37:06;;;;;;;6.22;5.53;;;;;;;26.80;48.19;100119.06;4110947;28;20697;-63
2022/08/31 08:39:09;;;;;;;7.45;5.53;;;;;;;27.45;46.58;100125.34;4112639;28;20234;-63
2022/08/31 08:41:18;;;;;;;6.32;5.60;;;;;;;26.71;48.07;100107.81;4111313;28;20665;-62
2022/08/31 08:43:27;;;;;;;6.63;5.93;;;;;;;25.60;48.91;100115.16;4111463;28;20249;-62
2022/08/31 08:45:32;;;;;;;7.40;5.53;;;;;;;25.66;48.94;100107.88;4113677;28;20228;-63
2022/08/31 08:47:36;;;;;;;7.43;6.20;;;;;;;25.38;48.91;100115.91;4110874;28;20695;-63
2022/08/31 08:49:48;;;;;;;8.07;5.47;;;;;;;26.89;47.09;100112.88;4113046;28;20260;-62
2022/08/31 08:52:02;;;;;;;8.57;5.50;;;;;;;26.96;47.88;100118.13;4118507;28;20262;-63
2022/08/31 08:54:11;;;;;;;8.10;5.80;;;;;;;26.89;47.57;100125.69;4111189;28;20296;-62
2022/08/31 08:56:13;;;;;;;6.85;5.50;;;;;;;26.16;48.31;100126.81;4110974;28;20247;-63
2022/08/31 08:58:34;;;;;;;9.98;5.70;;;;;;;24.99;49.25;100123.97;4113477;28;20222;-63
2022/08/31 09:00:37;;;;;;;7.47;5.78;;;;;;;24.56;49.57;100136.22;4108917;28;20246;-63
2022/08/31 09:02:47;;;;;;;7.10;5.45;;;;;;;25.26;49.90;100115.16;4117046;28;20320;-64
2022/08/31 09:04:59;;;;;;;8.25;5.82;;;;;;;25.32;49.07;100116.88;4110041;28;20258;-64
2022/08/31 09:07:01;;;;;;;8.65;5.47;;;;;;;24.78;49.39;100117.34;4109640;28;20970;-63
2022/08/31 09:09:21;;;;;;;6.90;5.60;;;;;;;24.71;48.96;100129.44;4110539;28;20238;-63
2022/08/31 09:11:48;;;;;;;10.68;6.63;;;;;;;25.82;48.15;100117.09;4112307;28;20653;-64
2022/08/31 09:14:06;;;;;;;8.32;5.93;;;;;;;26.31;47.60;100122.63;4111333;28;20751;-63
2022/08/31 09:16:35;;;;;;;7.22;5.55;;;;;;;26.73;47.21;100141.09;4111185;28;20289;-64
2022/08/31 09:18:36;;;;;;;13.55;6.43;;;;;;;25.86;48.32;100153.63;4110004;28;20234;-64
2022/08/31 09:20:40;;;;;;;10.40;6.13;;;;;;;26.29;47.52;100143.88;4112488;28;20281;-63
2022/08/31 09:22:49;;;;;;;6.97;5.95;;;;;;;26.99;46.55;100141.34;4112194;28;20238;-62
2022/08/31 09:24:50;;;;;;;8.40;6.28;;;;;;;25.78;47.39;100144.81;4111981;28;21030;-63
2022/08/31 09:27:25;;;;;;;8.50;5.65;;;;;;;27.38;45.77;100152.88;4110299;28;20602;-64
2022/08/31 09:29:30;;;;;;;10.68;6.47;;;;;;;27.29;46.58;100157.16;4111033;28;20230;-62
2022/08/31 09:31:40;;;;;;;9.07;5.82;;;;;;;26.51;46.80;100155.59;4113148;28;20234;-63
2022/08/31 09:33:49;;;;;;;9.18;6.10;;;;;;;26.63;47.35;100155.44;4110084;28;20680;-65
2022/08/31 09:36:11;;;;;;;7.85;6.60;;;;;;;26.22;47.83;100151.38;4112360;28;20257;-63
2022/08/31 09:38:39;;;;;;;7.13;6.20;;;;;;;27.07;47.14;100146.34;4111194;28;20274;-63
2022/08/31 09:40:46;;;;;;;8.55;6.68;;;;;;;26.35;48.14;100148.28;4107660;28;20237;-63
2022/08/31 09:43:21;;;;;;;8.43;7.07;;;;;;;26.99;47.82;100149.53;4113713;28;20234;-63
2022/08/31 09:45:34;;;;;;;8.00;6.68;;;;;;;27.10;47.25;100143.09;4111372;28;20239;-62
2022/08/31 09:47:47;;;;;;;9.52;7.07;;;;;;;27.48;47.08;100130.28;4110509;28;20234;-63